createdAt,value
2023-01-29T00:01:36.031Z,9.03
2023-01-29T00:04:05.694Z,8.93
2023-01-29T00:06:33.608Z,7.70
2023-01-29T00:09:01.698Z,9.57
2023-01-29T00:11:31.275Z,9.30
2023-01-29T00:13:59.732Z,7.97
2023-01-29T00:16:27.593Z,8.47
2023-01-29T00:18:55.506Z,10.43
2023-01-29T00:21:25.211Z,9.10
2023-01-29T00:23:55.288Z,8.13
2023-01-29T00:26:23.944Z,8.40
2023-01-29T00:28:51.894Z,8.53
2023-01-29T00:31:22.102Z,8.47
2023-01-29T00:33:50.299Z,9.07
2023-01-29T00:36:20.232Z,8.03
2023-01-29T00:38:54.598Z,7.50
2023-01-29T00:41:40.679Z,6.40
2023-01-29T00:44:26.486Z,8.37
2023-01-29T00:46:54.644Z,6.77
2023-01-29T00:49:22.636Z,9.03
2023-01-29T00:52:10.542Z,7.10
2023-01-29T00:54:39.730Z,8.00
2023-01-29T00:57:07.641Z,8.07
2023-01-29T00:59:35.554Z,13.53
2023-01-29T01:02:20.791Z,7.67
2023-01-29T01:04:48.707Z,6.53
2023-01-29T01:07:16.598Z,7.67
2023-01-29T01:10:03.440Z,7.50
2023-01-29T01:12:31.599Z,7.40
2023-01-29T01:14:59.537Z,7.70
2023-01-29T01:17:27.466Z,6.47
2023-01-29T01:19:55.320Z,7.07
2023-01-29T01:22:23.188Z,6.67
2023-01-29T01:24:52.402Z,8.50
2023-01-29T01:27:20.420Z,7.00
2023-01-29T01:29:48.489Z,11.27
2023-01-29T01:32:16.943Z,6.77
2023-01-29T01:34:45.808Z,7.70
2023-01-29T01:37:13.773Z,7.80
2023-01-29T01:39:41.701Z,7.13
2023-01-29T01:42:14.383Z,10.00
2023-01-29T01:45:01.111Z,8.80
2023-01-29T01:47:34.724Z,9.07
2023-01-29T01:50:08.824Z,8.17
2023-01-29T01:52:40.032Z,10.50
2023-01-29T01:55:10.247Z,11.17
2023-01-29T01:57:40.343Z,9.73
2023-01-29T02:00:13.231Z,7.77
2023-01-29T02:03:01.127Z,8.60
2023-01-29T02:05:48.085Z,8.90
2023-01-29T02:08:36.742Z,9.70
2023-01-29T02:11:05.069Z,8.23
2023-01-29T02:13:34.461Z,8.83
2023-01-29T02:16:02.389Z,9.00
2023-01-29T02:18:30.284Z,9.57
2023-01-29T02:21:25.145Z,11.53
2023-01-29T02:24:41.355Z,8.33
2023-01-29T02:27:11.817Z,9.37
2023-01-29T02:29:54.111Z,9.47
2023-01-29T02:32:31.109Z,8.70
2023-01-29T02:35:27.049Z,9.57
2023-01-29T02:38:02.743Z,7.63
2023-01-29T02:40:36.841Z,7.30
2023-01-29T02:43:16.430Z,8.13
2023-01-29T02:45:51.324Z,9.43
2023-01-29T02:48:24.835Z,9.67
2023-01-29T02:50:59.569Z,9.23
2023-01-29T02:53:33.583Z,7.10
2023-01-29T02:56:07.630Z,8.33
2023-01-29T02:58:40.756Z,9.43
2023-01-29T03:01:16.319Z,11.83
2023-01-29T03:03:48.746Z,10.80
2023-01-29T03:06:22.332Z,10.63
2023-01-29T03:08:57.062Z,10.40
2023-01-29T03:11:25.349Z,10.40
2023-01-29T03:13:57.737Z,9.77
2023-01-29T03:16:33.901Z,11.80
2023-01-29T03:19:06.281Z,9.67
2023-01-29T03:21:59.365Z,10.47
2023-01-29T03:24:54.401Z,10.37
2023-01-29T03:27:44.670Z,11.83
2023-01-29T03:30:35.145Z,11.00
2023-01-29T03:33:08.855Z,10.77
2023-01-29T03:35:41.559Z,11.23
2023-01-29T03:38:11.977Z,11.50
2023-01-29T03:40:49.796Z,11.47
2023-01-29T03:43:27.889Z,10.87
2023-01-29T03:46:03.438Z,10.50
2023-01-29T03:48:37.658Z,10.50
2023-01-29T03:51:17.676Z,13.90
2023-01-29T03:53:50.809Z,11.90
2023-01-29T03:56:28.358Z,12.63
2023-01-29T03:59:01.470Z,13.03
2023-01-29T04:01:34.406Z,12.67
2023-01-29T04:04:11.268Z,12.07
2023-01-29T04:06:42.513Z,13.07
2023-01-29T04:09:17.365Z,13.93
2023-01-29T04:11:51.815Z,13.03
2023-01-29T04:14:20.064Z,13.83
2023-01-29T04:16:52.221Z,15.03
2023-01-29T04:19:21.909Z,14.50
2023-01-29T04:21:51.819Z,14.43
2023-01-29T04:24:19.771Z,13.47
2023-01-29T04:27:01.893Z,12.27
2023-01-29T04:29:41.681Z,14.77
2023-01-29T04:32:16.174Z,14.17
2023-01-29T04:34:58.302Z,16.00
2023-01-29T04:37:36.499Z,14.73
2023-01-29T04:40:14.893Z,14.33
2023-01-29T04:42:49.878Z,14.33
2023-01-29T04:45:27.054Z,14.00
2023-01-29T04:48:03.897Z,13.30
2023-01-29T04:50:38.684Z,13.40
2023-01-29T04:53:13.086Z,14.23
2023-01-29T04:55:46.130Z,15.63
2023-01-29T04:58:20.071Z,13.93
2023-01-29T05:00:51.092Z,15.10
2023-01-29T05:03:19.412Z,13.87
2023-01-29T05:05:51.083Z,15.33
2023-01-29T05:08:22.570Z,15.70
2023-01-29T05:10:52.814Z,15.40
2023-01-29T05:13:23.183Z,14.50
2023-01-29T05:15:57.069Z,16.47
2023-01-29T05:18:25.209Z,15.93
2023-01-29T05:20:57.373Z,15.70
2023-01-29T05:23:25.286Z,17.27
2023-01-29T05:25:53.245Z,18.47
2023-01-29T05:28:20.106Z,15.27
2023-01-29T05:30:49.612Z,14.63
2023-01-29T05:33:19.870Z,15.23
2023-01-29T05:35:48.305Z,17.30
2023-01-29T05:38:18.143Z,17.23
2023-01-29T05:40:46.282Z,14.60
2023-01-29T05:43:17.662Z,13.73
2023-01-29T05:45:53.681Z,15.37
2023-01-29T05:48:21.649Z,14.40
2023-01-29T05:50:49.801Z,16.93
2023-01-29T05:53:19.275Z,16.97
2023-01-29T05:55:48.181Z,15.83
2023-01-29T05:58:16.178Z,16.23
2023-01-29T06:00:44.059Z,16.50
2023-01-29T06:03:12.164Z,17.73
2023-01-29T06:05:40.767Z,14.03
2023-01-29T06:08:09.264Z,17.27
2023-01-29T06:10:38.474Z,17.30
2023-01-29T06:13:06.988Z,16.17
2023-01-29T06:15:34.915Z,16.90
2023-01-29T06:18:02.959Z,15.90
2023-01-29T06:20:30.811Z,16.73
2023-01-29T06:22:59.313Z,18.83
2023-01-29T06:25:27.265Z,18.63
2023-01-29T06:27:59.292Z,15.73
2023-01-29T06:30:28.298Z,17.67
2023-01-29T06:32:58.682Z,16.63
2023-01-29T06:35:26.739Z,16.30
2023-01-29T06:37:55.215Z,16.73
2023-01-29T06:40:23.076Z,15.70
2023-01-29T06:42:51.005Z,18.60
2023-01-29T06:45:20.294Z,15.13
2023-01-29T06:47:48.199Z,17.87
2023-01-29T06:50:16.513Z,18.17
2023-01-29T06:52:44.527Z,20.07
2023-01-29T06:55:12.644Z,17.47
2023-01-29T06:57:40.542Z,19.23
2023-01-29T07:00:10.901Z,18.27
2023-01-29T07:02:40.215Z,18.30
2023-01-29T07:05:08.842Z,17.63
2023-01-29T07:07:37.768Z,16.67
2023-01-29T07:10:06.542Z,18.27
2023-01-29T07:12:34.531Z,17.00
2023-01-29T07:15:02.527Z,16.53
2023-01-29T07:17:30.522Z,17.17
2023-01-29T07:19:59.782Z,18.43
2023-01-29T07:22:27.723Z,15.57
2023-01-29T07:24:55.636Z,18.00
2023-01-29T07:27:23.553Z,17.00
2023-01-29T07:29:51.556Z,19.07
2023-01-29T07:32:19.526Z,16.50
2023-01-29T07:34:48.288Z,21.40
2023-01-29T07:37:17.691Z,16.97
2023-01-29T07:39:46.559Z,16.27
2023-01-29T07:42:14.505Z,18.47
2023-01-29T07:44:42.543Z,19.03
2023-01-29T07:47:10.439Z,17.77
2023-01-29T07:49:38.362Z,17.53
2023-01-29T07:52:06.460Z,18.33
2023-01-29T07:54:35.714Z,21.57
2023-01-29T07:57:03.566Z,17.00
2023-01-29T07:59:32.111Z,19.37
2023-01-29T08:02:00.094Z,19.80
2023-01-29T08:04:28.071Z,19.33
2023-01-29T08:06:55.923Z,17.87
2023-01-29T08:09:23.818Z,19.90
2023-01-29T08:11:53.022Z,17.97
2023-01-29T08:14:21.069Z,22.37
2023-01-29T08:16:49.074Z,17.57
2023-01-29T08:19:17.346Z,16.67
2023-01-29T08:21:45.263Z,19.60
2023-01-29T08:24:13.188Z,19.40
2023-01-29T08:26:41.158Z,18.97
2023-01-29T08:29:11.554Z,16.47
2023-01-29T08:31:39.494Z,17.63
2023-01-29T08:34:07.449Z,17.00
2023-01-29T08:36:35.691Z,16.93
2023-01-29T08:39:03.690Z,15.87
2023-01-29T08:41:31.561Z,21.77
2023-01-29T08:44:01.346Z,15.30
2023-01-29T08:46:30.586Z,18.10
2023-01-29T08:48:58.670Z,19.20
2023-01-29T08:51:27.446Z,17.80
2023-01-29T08:53:55.302Z,16.10
2023-01-29T08:56:23.211Z,17.07
2023-01-29T08:58:51.082Z,15.47
2023-01-29T09:01:19.057Z,15.33
2023-01-29T09:03:48.346Z,20.13
2023-01-29T09:06:16.330Z,17.10
2023-01-29T09:08:44.379Z,17.90
2023-01-29T09:11:12.237Z,16.57
2023-01-29T09:13:40.119Z,17.43
2023-01-29T09:16:08.449Z,17.57
2023-01-29T09:18:36.365Z,17.43
2023-01-29T09:21:06.175Z,16.70
2023-01-29T09:23:34.074Z,16.63
2023-01-29T09:26:02.037Z,16.07
2023-01-29T09:28:29.956Z,16.17
2023-01-29T09:30:57.939Z,15.47
2023-01-29T09:33:26.137Z,15.70
2023-01-29T09:35:54.083Z,16.70
2023-01-29T09:38:23.318Z,15.27
2023-01-29T09:40:59.607Z,15.50
2023-01-29T09:43:41.674Z,16.33
2023-01-29T09:46:19.079Z,15.17
2023-01-29T09:48:48.821Z,13.97
2023-01-29T09:51:26.565Z,14.97
2023-01-29T09:54:07.187Z,16.53
2023-01-29T09:56:36.169Z,18.33
2023-01-29T09:59:04.092Z,15.93
2023-01-29T10:01:37.996Z,15.67
2023-01-29T10:04:28.351Z,15.03
2023-01-29T10:07:11.722Z,15.50
2023-01-29T10:10:24.307Z,15.57
2023-01-29T10:13:03.945Z,16.93
2023-01-29T10:15:47.691Z,18.03
2023-01-29T10:18:45.022Z,15.03
2023-01-29T10:21:29.326Z,16.63
2023-01-29T10:24:06.664Z,15.23
2023-01-29T10:26:37.773Z,18.50
2023-01-29T10:29:09.176Z,16.87
2023-01-29T10:31:40.619Z,16.97
2023-01-29T10:34:13.944Z,18.00
2023-01-29T10:36:44.469Z,17.73
2023-01-29T10:39:18.601Z,15.23
2023-01-29T10:42:01.838Z,17.80
2023-01-29T10:44:42.604Z,16.30
2023-01-29T10:47:34.254Z,15.80
2023-01-29T10:50:19.595Z,19.70
2023-01-29T10:53:13.234Z,18.10
2023-01-29T10:55:50.746Z,16.60
2023-01-29T10:58:27.613Z,17.60
2023-01-29T11:00:57.195Z,14.60
2023-01-29T11:03:28.796Z,16.27
2023-01-29T11:06:10.084Z,18.70
2023-01-29T11:08:43.155Z,16.27
2023-01-29T11:11:14.736Z,18.80
2023-01-29T11:13:46.590Z,18.90
2023-01-29T11:16:16.083Z,19.50
2023-01-29T11:18:58.729Z,19.07
2023-01-29T11:21:28.215Z,16.77
2023-01-29T11:24:12.926Z,17.23
2023-01-29T11:26:43.289Z,18.23
2023-01-29T11:29:38.342Z,17.53
2023-01-29T11:32:09.417Z,19.97
2023-01-29T11:34:57.867Z,18.33
2023-01-29T11:37:34.274Z,17.57
2023-01-29T11:40:02.429Z,18.97
2023-01-29T11:42:33.819Z,19.60
2023-01-29T11:45:01.772Z,18.70
2023-01-29T11:47:32.090Z,17.77
2023-01-29T11:50:03.560Z,18.13
2023-01-29T11:52:37.865Z,18.27
2023-01-29T11:55:14.563Z,18.13
2023-01-29T11:57:45.152Z,20.70
2023-01-29T12:00:23.191Z,20.40
2023-01-29T12:02:56.558Z,18.87
2023-01-29T12:05:27.013Z,18.20
2023-01-29T12:07:57.297Z,19.07
2023-01-29T12:10:33.980Z,19.77
2023-01-29T12:13:22.976Z,20.53
2023-01-29T12:15:53.197Z,18.60
2023-01-29T12:18:30.820Z,18.97
2023-01-29T12:21:03.354Z,20.63
2023-01-29T12:23:37.312Z,19.93
2023-01-29T12:26:10.561Z,21.43
2023-01-29T12:28:50.464Z,19.60
2023-01-29T12:31:29.785Z,23.70
2023-01-29T12:34:06.591Z,20.37
2023-01-29T12:36:39.455Z,22.73
2023-01-29T12:39:07.443Z,21.43
2023-01-29T12:41:41.291Z,23.10
2023-01-29T12:44:15.525Z,20.13
2023-01-29T12:46:50.278Z,19.47
2023-01-29T12:49:24.668Z,20.90
2023-01-29T12:51:59.020Z,21.20
2023-01-29T12:54:36.073Z,23.33
2023-01-29T12:57:09.714Z,22.13
2023-01-29T12:59:44.122Z,19.67
2023-01-29T13:02:24.646Z,20.90
2023-01-29T13:05:00.291Z,21.00
2023-01-29T13:07:34.091Z,20.53
2023-01-29T13:10:08.764Z,20.87
2023-01-29T13:12:38.176Z,22.90
2023-01-29T13:15:18.603Z,23.00
2023-01-29T13:17:50.701Z,21.37
2023-01-29T13:20:25.263Z,22.83
2023-01-29T13:22:55.797Z,21.77
2023-01-29T13:25:23.745Z,25.07
2023-01-29T13:27:51.852Z,22.77
2023-01-29T13:30:28.484Z,22.53
2023-01-29T13:33:09.054Z,22.23
2023-01-29T13:35:42.025Z,20.77
2023-01-29T13:38:24.291Z,28.03
2023-01-29T13:40:52.549Z,19.80
2023-01-29T13:43:23.227Z,24.13
2023-01-29T13:45:53.827Z,25.57
2023-01-29T13:48:26.669Z,21.87
2023-01-29T13:50:57.452Z,25.53
2023-01-29T13:53:28.194Z,21.00
2023-01-29T13:55:56.196Z,22.77
2023-01-29T13:58:55.292Z,21.03
2023-01-29T14:01:57.178Z,23.70
2023-01-29T14:04:28.335Z,24.60
2023-01-29T14:06:58.719Z,23.80
2023-01-29T14:10:05.053Z,23.73
2023-01-29T14:12:36.752Z,23.93
2023-01-29T14:15:19.925Z,21.77
2023-01-29T14:18:00.948Z,23.20
2023-01-29T14:20:45.518Z,21.13
2023-01-29T14:23:29.473Z,22.37
2023-01-29T14:25:58.240Z,20.43
2023-01-29T14:28:29.547Z,23.07
2023-01-29T14:30:57.857Z,20.47
2023-01-29T14:33:29.806Z,20.67
2023-01-29T14:35:59.034Z,22.07
2023-01-29T14:38:30.628Z,22.83
2023-01-29T14:41:09.477Z,24.43
2023-01-29T14:43:37.405Z,20.30
2023-01-29T14:46:41.852Z,20.90
2023-01-29T14:49:09.951Z,22.00
2023-01-29T14:51:41.418Z,20.17
2023-01-29T14:54:22.643Z,20.30
2023-01-29T14:56:58.958Z,19.10
2023-01-29T14:59:33.111Z,20.03
2023-01-29T15:02:06.386Z,19.17
2023-01-29T15:04:40.946Z,19.97
2023-01-29T15:07:20.793Z,21.07
2023-01-29T15:10:01.328Z,18.67
2023-01-29T15:12:47.196Z,22.67
2023-01-29T15:15:19.909Z,19.87
2023-01-29T15:17:56.882Z,18.77
2023-01-29T15:20:29.852Z,17.47
2023-01-29T15:22:58.030Z,18.63
2023-01-29T15:25:38.324Z,19.07
2023-01-29T15:28:10.161Z,17.93
2023-01-29T15:30:39.178Z,18.77
2023-01-29T15:33:10.607Z,20.70
2023-01-29T15:35:40.572Z,18.30
2023-01-29T15:38:17.410Z,18.80
2023-01-29T15:40:54.818Z,19.10
2023-01-29T15:43:24.649Z,18.10
2023-01-29T15:45:54.611Z,17.13
2023-01-29T15:48:32.810Z,17.47
2023-01-29T15:51:04.655Z,14.93
2023-01-29T15:53:39.007Z,17.47
2023-01-29T15:56:12.551Z,18.20
2023-01-29T15:58:41.390Z,17.67
2023-01-29T16:01:11.958Z,16.10
2023-01-29T16:03:40.072Z,17.30
2023-01-29T16:06:08.798Z,18.83
2023-01-29T16:08:37.620Z,17.17
2023-01-29T16:11:07.745Z,15.70
2023-01-29T16:13:41.049Z,18.80
2023-01-29T16:16:22.611Z,17.60
2023-01-29T16:18:59.887Z,17.10
2023-01-29T16:21:31.692Z,17.83
2023-01-29T16:24:01.714Z,16.33
2023-01-29T16:26:32.925Z,17.67
2023-01-29T16:29:07.497Z,17.80
2023-01-29T16:31:37.665Z,18.53
2023-01-29T16:34:10.108Z,18.53
2023-01-29T16:36:38.161Z,19.93
2023-01-29T16:39:14.439Z,19.50
2023-01-29T16:41:42.346Z,18.43
2023-01-29T16:47:15.332Z,17.83
2023-01-29T16:49:51.269Z,19.37
2023-01-29T16:52:23.885Z,20.50
2023-01-29T16:54:51.844Z,17.10
2023-01-29T16:57:23.849Z,17.97
2023-01-29T16:59:55.471Z,20.87
2023-01-29T17:02:29.252Z,19.80
2023-01-29T17:05:01.350Z,20.43
2023-01-29T17:07:30.139Z,22.00
2023-01-29T17:10:01.486Z,21.63
2023-01-29T17:12:31.150Z,22.17
2023-01-29T17:15:00.549Z,21.90
2023-01-29T17:17:34.560Z,21.17
2023-01-29T17:20:14.011Z,19.87
2023-01-29T17:22:41.935Z,20.33
2023-01-29T17:25:11.372Z,20.90
2023-01-29T17:27:42.411Z,20.40
2023-01-29T17:30:15.602Z,21.47
2023-01-29T17:32:47.512Z,22.30
2023-01-29T17:35:17.146Z,23.30
2023-01-29T17:37:45.360Z,23.07
2023-01-29T17:40:34.785Z,21.07
2023-01-29T17:43:02.662Z,20.47
2023-01-29T17:45:30.650Z,20.77
2023-01-29T17:48:00.700Z,22.30
2023-01-29T17:50:31.176Z,20.87
2023-01-29T17:52:59.089Z,22.23
2023-01-29T17:55:26.918Z,22.13
2023-01-29T17:57:54.829Z,20.10
2023-01-29T18:00:25.147Z,21.37
2023-01-29T18:02:54.215Z,24.47
2023-01-29T18:05:23.488Z,18.03
2023-01-29T18:07:54.703Z,20.53
2023-01-29T18:10:23.110Z,21.83
2023-01-29T18:12:51.094Z,21.23
2023-01-29T18:15:19.375Z,20.83
2023-01-29T18:17:48.373Z,19.47
2023-01-29T18:20:21.044Z,20.80
2023-01-29T18:22:50.388Z,21.33
2023-01-29T18:25:19.204Z,21.40
2023-01-29T18:27:47.471Z,23.17
2023-01-29T18:30:15.848Z,24.70
2023-01-29T18:32:43.762Z,22.43
2023-01-29T18:35:11.603Z,24.13
2023-01-29T18:37:39.516Z,21.27
2023-01-29T18:40:13.172Z,23.03
2023-01-29T18:42:41.563Z,20.93
2023-01-29T18:45:10.442Z,23.43
2023-01-29T18:47:38.536Z,23.47
2023-01-29T18:50:07.903Z,23.73
2023-01-29T18:52:35.872Z,24.70
2023-01-29T18:55:03.887Z,24.83
2023-01-29T18:58:33.466Z,19.83
2023-01-29T19:00:21.728Z,23.70
2023-01-29T19:02:50.712Z,23.70
2023-01-29T19:05:22.739Z,22.63
2023-01-29T19:07:50.876Z,24.30
2023-01-29T19:10:19.129Z,22.23
2023-01-29T19:12:48.362Z,22.73
2023-01-29T19:15:20.451Z,22.10
2023-01-29T19:17:48.300Z,23.53
2023-01-29T19:20:16.502Z,29.07
2023-01-29T19:22:44.452Z,22.90
2023-01-29T19:25:12.637Z,25.33
2023-01-29T19:27:40.693Z,21.27
2023-01-29T19:30:12.873Z,22.83
2023-01-29T19:32:41.205Z,22.53
2023-01-29T19:35:09.489Z,21.60
2023-01-29T19:37:37.462Z,24.80
2023-01-29T19:40:06.269Z,22.70
2023-01-29T19:42:35.425Z,22.83
2023-01-29T19:45:03.464Z,20.93
2023-01-29T19:47:33.799Z,23.07
2023-01-29T19:50:01.848Z,21.37
2023-01-29T19:52:50.333Z,21.47
2023-01-29T19:55:20.556Z,21.03
2023-01-29T19:57:48.877Z,20.33
2023-01-29T20:00:18.414Z,20.73
2023-01-29T20:02:47.887Z,21.03
2023-01-29T20:05:18.280Z,19.20
2023-01-29T20:07:46.717Z,19.90
2023-01-29T20:10:17.389Z,21.53
2023-01-29T20:12:46.002Z,19.00
2023-01-29T20:15:14.269Z,21.93
2023-01-29T20:17:43.021Z,21.90
2023-01-29T20:20:13.072Z,21.70
2023-01-29T20:22:41.102Z,19.33
2023-01-29T20:25:09.713Z,22.40
2023-01-29T20:27:37.603Z,20.13
2023-01-29T20:30:06.405Z,21.53
2023-01-29T20:32:35.306Z,18.70
2023-01-29T20:35:03.237Z,20.70
2023-01-29T20:37:32.456Z,21.57
2023-01-29T20:40:00.429Z,19.73
2023-01-29T20:42:28.355Z,19.67
2023-01-29T20:44:56.383Z,19.70
2023-01-29T20:47:24.323Z,19.63
2023-01-29T20:49:52.285Z,18.57
2023-01-29T20:52:20.240Z,19.20
2023-01-29T20:54:49.745Z,23.87
2023-01-29T20:57:17.743Z,19.27
2023-01-29T20:59:45.665Z,19.10
2023-01-29T21:02:13.543Z,21.50
2023-01-29T21:04:44.101Z,21.33
2023-01-29T21:07:12.448Z,17.60
2023-01-29T21:09:40.491Z,22.10
2023-01-29T21:12:10.082Z,18.37
2023-01-29T21:14:38.273Z,20.07
2023-01-29T21:17:06.944Z,24.17
2023-01-29T21:19:35.182Z,19.47
2023-01-29T21:22:03.053Z,19.43
2023-01-29T21:24:30.939Z,20.40
2023-01-29T21:26:58.800Z,19.87
2023-01-29T21:29:28.112Z,24.33
2023-01-29T21:31:56.050Z,17.17
2023-01-29T21:34:24.092Z,18.83
2023-01-29T21:36:52.180Z,18.57
2023-01-29T21:39:20.973Z,19.27
2023-01-29T21:42:07.886Z,21.60
2023-01-29T21:44:38.137Z,19.43
2023-01-29T21:47:12.298Z,17.67
2023-01-29T21:49:41.784Z,18.70
2023-01-29T21:52:11.296Z,17.93
2023-01-29T21:54:40.033Z,18.43
2023-01-29T21:57:12.145Z,16.20
2023-01-29T21:59:41.949Z,16.63
2023-01-29T22:02:14.637Z,14.63
2023-01-29T22:04:43.037Z,18.63
2023-01-29T22:07:11.055Z,16.87
2023-01-29T22:09:39.137Z,14.67
2023-01-29T22:12:09.223Z,15.13
2023-01-29T22:14:37.123Z,16.13
2023-01-29T22:17:06.467Z,17.50
2023-01-29T22:19:34.419Z,19.23
2023-01-29T22:22:02.719Z,18.27
2023-01-29T22:24:30.580Z,19.30
2023-01-29T22:26:58.427Z,17.03
2023-01-29T22:29:26.292Z,18.80
2023-01-29T22:31:54.127Z,17.93
2023-01-29T22:34:23.414Z,23.43
2023-01-29T22:36:51.296Z,19.67
2023-01-29T22:39:19.244Z,20.40
2023-01-29T22:41:47.218Z,19.20
2023-01-29T22:44:15.105Z,20.45
2023-01-29T22:46:43.122Z,21.23
2023-01-29T22:49:11.481Z,19.43
2023-01-29T22:51:40.751Z,20.47
2023-01-29T22:54:08.647Z,24.20
2023-01-29T22:56:36.650Z,19.70
2023-01-29T22:59:04.545Z,19.57
2023-01-29T23:01:33.154Z,18.70
2023-01-29T23:04:01.066Z,20.43
2023-01-29T23:06:29.027Z,17.70
2023-01-29T23:08:58.297Z,19.30
2023-01-29T23:11:26.265Z,17.00
2023-01-29T23:13:55.558Z,20.17
2023-01-29T23:16:26.943Z,18.13
2023-01-29T23:18:56.804Z,17.17
2023-01-29T23:21:27.237Z,18.37
2023-01-29T23:23:58.174Z,19.57
2023-01-29T23:26:45.742Z,19.70
2023-01-29T23:29:13.908Z,16.90
2023-01-29T23:31:41.907Z,20.37
2023-01-29T23:34:09.978Z,17.07
2023-01-29T23:36:37.925Z,14.93
2023-01-29T23:39:06.177Z,16.37
2023-01-29T23:41:35.588Z,17.37
2023-01-29T23:44:03.742Z,15.70
2023-01-29T23:46:31.732Z,15.30
2023-01-29T23:48:59.779Z,16.40
2023-01-29T23:51:27.682Z,16.17
2023-01-29T23:53:55.778Z,17.77
2023-01-29T23:56:24.140Z,15.13
2023-01-29T23:58:55.714Z,13.80
